DLH1457 LATI-EDDF
Flight info
| Callsign | DLH1457 |
|---|---|
| Flight time | 1h 58m |
| Altitude | 38000 |
| Route | INLOT DCT RETRA DCT POD DCT GACMO DCT TEBLI DCT PODET DCT SIMBA DCT AKINI T161 DEBHI DEBHI1B |
| Aircraft | A321/M-SDE2E3FGIJ1LORWXYZ/HB1 |
Departure
| Time | 2026-05-06 04:08 |
|---|---|
| Airport | Tirana International Airport Mother Teresa (LATI) |
Arrival
| Time | 2026-05-06 06:06 |
|---|---|
| Airport | Frankfurt Main Airport (EDDF) |
| Time | Latitude | Longitude | Altitude | Speed | Heading |
|---|---|---|---|---|---|
| 2026-05-06 03:38 | 41.41989 | 19.71513 | 111 ft | 0 kts | 265° |
| 2026-05-06 04:00 | 41.41990 | 19.71532 | 111 ft | 2 kts | 265° |
| 2026-05-06 04:00 | 41.41991 | 19.71552 | 111 ft | 2 kts | 265° |
| 2026-05-06 04:01 | 41.41993 | 19.71569 | 111 ft | 1 kts | 292° |
| 2026-05-06 04:01 | 41.41985 | 19.71580 | 111 ft | 0 kts | 347° |
| 2026-05-06 04:01 | 41.41979 | 19.71581 | 111 ft | 0 kts | 358° |
| 2026-05-06 04:01 | 41.41976 | 19.71581 | 111 ft | 0 kts | 354° |
| 2026-05-06 04:02 | 41.41977 | 19.71581 | 111 ft | 1 kts | 354° |
| 2026-05-06 04:03 | 41.42035 | 19.71572 | 111 ft | 20 kts | 354° |
| 2026-05-06 04:03 | 41.42203 | 19.71551 | 110 ft | 24 kts | 355° |
| 2026-05-06 04:03 | 41.42371 | 19.71530 | 107 ft | 22 kts | 355° |
| 2026-05-06 04:03 | 41.42527 | 19.71510 | 107 ft | 22 kts | 354° |
| 2026-05-06 04:04 | 41.42630 | 19.71497 | 107 ft | 8 kts | 355° |
| 2026-05-06 04:04 | 41.42664 | 19.71511 | 107 ft | 5 kts | 69° |
| 2026-05-06 04:04 | 41.42671 | 19.71615 | 107 ft | 17 kts | 85° |
| 2026-05-06 04:04 | 41.42680 | 19.71743 | 107 ft | 2 kts | 85° |
| 2026-05-06 04:05 | 41.42681 | 19.71762 | 107 ft | 2 kts | 85° |
| 2026-05-06 04:05 | 41.42684 | 19.71806 | 107 ft | 11 kts | 85° |
| 2026-05-06 04:05 | 41.42660 | 19.71898 | 109 ft | 7 kts | 166° |
| 2026-05-06 04:05 | 41.42629 | 19.71905 | 109 ft | 0 kts | 174° |
| 2026-05-06 04:07 | 41.42461 | 19.71927 | 109 ft | 68 kts | 174° |
| 2026-05-06 04:07 | 41.41678 | 19.72030 | 122 ft | 154 kts | 174° |
| 2026-05-06 04:08 | 41.40545 | 19.72154 | 826 ft | 171 kts | 174° |
| 2026-05-06 04:08 | 41.39335 | 19.72300 | 1755 ft | 184 kts | 173° |
| 2026-05-06 04:08 | 41.38070 | 19.72473 | 2812 ft | 189 kts | 173° |
| 2026-05-06 04:08 | 41.36800 | 19.72664 | 3849 ft | 191 kts | 173° |
| 2026-05-06 04:09 | 41.35468 | 19.72855 | 4406 ft | 200 kts | 174° |
| 2026-05-06 04:09 | 41.34011 | 19.73050 | 4805 ft | 217 kts | 174° |
| 2026-05-06 04:09 | 41.32444 | 19.73256 | 5136 ft | 239 kts | 175° |
| 2026-05-06 04:09 | 41.30727 | 19.73483 | 5544 ft | 258 kts | 175° |
| 2026-05-06 04:10 | 41.28893 | 19.73725 | 6108 ft | 271 kts | 175° |
| 2026-05-06 04:10 | 41.27011 | 19.73972 | 6885 ft | 274 kts | 177° |
| 2026-05-06 04:10 | 41.25136 | 19.73724 | 7613 ft | 277 kts | 201° |
| 2026-05-06 04:10 | 41.23521 | 19.72363 | 8337 ft | 278 kts | 227° |
| 2026-05-06 04:11 | 41.22515 | 19.70218 | 9077 ft | 280 kts | 252° |
| 2026-05-06 04:11 | 41.22299 | 19.67670 | 9840 ft | 281 kts | 277° |
| 2026-05-06 04:11 | 41.22924 | 19.65249 | 10449 ft | 287 kts | 302° |
| 2026-05-06 04:11 | 41.24358 | 19.63335 | 10791 ft | 305 kts | 328° |
| 2026-05-06 04:12 | 41.26416 | 19.62446 | 11263 ft | 318 kts | 350° |
| 2026-05-06 04:12 | 41.28612 | 19.61999 | 11969 ft | 321 kts | 349° |
| 2026-05-06 04:12 | 41.30795 | 19.61494 | 12713 ft | 323 kts | 349° |
| 2026-05-06 04:12 | 41.33016 | 19.60966 | 13396 ft | 326 kts | 348° |
| 2026-05-06 04:13 | 41.35233 | 19.60434 | 14049 ft | 329 kts | 348° |
| 2026-05-06 04:13 | 41.37497 | 19.59892 | 14686 ft | 331 kts | 348° |
| 2026-05-06 04:13 | 41.39783 | 19.59345 | 15313 ft | 334 kts | 348° |
| 2026-05-06 04:13 | 41.42055 | 19.58800 | 15946 ft | 338 kts | 348° |
| 2026-05-06 04:14 | 41.44385 | 19.58242 | 16553 ft | 340 kts | 348° |
| 2026-05-06 04:14 | 41.46714 | 19.57684 | 17149 ft | 343 kts | 348° |
| 2026-05-06 04:14 | 41.49062 | 19.57119 | 17721 ft | 346 kts | 348° |
| 2026-05-06 04:14 | 41.51440 | 19.56548 | 18244 ft | 349 kts | 348° |
| 2026-05-06 04:15 | 41.53835 | 19.55972 | 18838 ft | 351 kts | 348° |
| 2026-05-06 04:15 | 41.56213 | 19.55401 | 19394 ft | 353 kts | 347° |
| 2026-05-06 04:15 | 41.58641 | 19.54818 | 19930 ft | 355 kts | 347° |
| 2026-05-06 04:15 | 41.61074 | 19.54231 | 20458 ft | 356 kts | 347° |
| 2026-05-06 04:16 | 41.63516 | 19.53642 | 20987 ft | 358 kts | 347° |
| 2026-05-06 04:16 | 41.65949 | 19.53055 | 21484 ft | 360 kts | 347° |
| 2026-05-06 04:16 | 41.68436 | 19.52454 | 21976 ft | 363 kts | 347° |
| 2026-05-06 04:16 | 41.70913 | 19.51855 | 22469 ft | 365 kts | 347° |
| 2026-05-06 04:17 | 41.73423 | 19.51248 | 22952 ft | 366 kts | 347° |
| 2026-05-06 04:17 | 41.75938 | 19.50641 | 23441 ft | 368 kts | 347° |
| 2026-05-06 04:17 | 41.78434 | 19.50034 | 23920 ft | 370 kts | 347° |
| 2026-05-06 04:17 | 41.80965 | 19.49421 | 24368 ft | 372 kts | 347° |
| 2026-05-06 04:18 | 41.83515 | 19.48802 | 24804 ft | 374 kts | 347° |
| 2026-05-06 04:18 | 41.86081 | 19.48179 | 25217 ft | 376 kts | 347° |
| 2026-05-06 04:18 | 41.88678 | 19.47549 | 25633 ft | 379 kts | 347° |
| 2026-05-06 04:18 | 41.91278 | 19.46916 | 26032 ft | 381 kts | 347° |
| 2026-05-06 04:19 | 41.93892 | 19.46281 | 26425 ft | 383 kts | 347° |
| 2026-05-06 04:19 | 41.96480 | 19.45578 | 26805 ft | 384 kts | 344° |
| 2026-05-06 04:19 | 41.99079 | 19.44663 | 27190 ft | 385 kts | 341° |
| 2026-05-06 04:19 | 42.01606 | 19.43563 | 27584 ft | 385 kts | 338° |
| 2026-05-06 04:20 | 42.04134 | 19.42378 | 27950 ft | 387 kts | 338° |
| 2026-05-06 04:20 | 42.06701 | 19.41158 | 28293 ft | 389 kts | 338° |
| 2026-05-06 04:20 | 42.09244 | 19.39948 | 28644 ft | 391 kts | 338° |
| 2026-05-06 04:20 | 42.11813 | 19.38727 | 29001 ft | 392 kts | 338° |
| 2026-05-06 04:21 | 42.14404 | 19.37497 | 29349 ft | 394 kts | 338° |
| 2026-05-06 04:21 | 42.16991 | 19.36263 | 29658 ft | 396 kts | 338° |
| 2026-05-06 04:21 | 42.19575 | 19.35035 | 29965 ft | 398 kts | 338° |
| 2026-05-06 04:21 | 42.22187 | 19.33790 | 30286 ft | 400 kts | 338° |
| 2026-05-06 04:22 | 42.24804 | 19.32507 | 30592 ft | 402 kts | 336° |
| 2026-05-06 04:22 | 42.27423 | 19.31172 | 30885 ft | 404 kts | 336° |
| 2026-05-06 04:22 | 42.30053 | 19.29823 | 31184 ft | 406 kts | 336° |
| 2026-05-06 04:23 | 42.35324 | 19.27030 | 31745 ft | 409 kts | 333° |
| 2026-05-06 04:23 | 42.37896 | 19.25398 | 32002 ft | 410 kts | 330° |
| 2026-05-06 04:23 | 42.40408 | 19.23576 | 32272 ft | 411 kts | 327° |
| 2026-05-06 04:23 | 42.42841 | 19.21577 | 32591 ft | 410 kts | 324° |
| 2026-05-06 04:24 | 42.45204 | 19.19466 | 32938 ft | 409 kts | 324° |
| 2026-05-06 04:24 | 42.47566 | 19.17323 | 33310 ft | 408 kts | 323° |
| 2026-05-06 04:24 | 42.49930 | 19.15170 | 33646 ft | 407 kts | 323° |
| 2026-05-06 04:24 | 42.52272 | 19.13031 | 33947 ft | 407 kts | 323° |
| 2026-05-06 04:25 | 42.54601 | 19.10903 | 34269 ft | 407 kts | 323° |
| 2026-05-06 04:25 | 42.56942 | 19.08766 | 34607 ft | 406 kts | 323° |
| 2026-05-06 04:25 | 42.59277 | 19.06631 | 34972 ft | 405 kts | 323° |
| 2026-05-06 04:25 | 42.61606 | 19.04501 | 35312 ft | 404 kts | 323° |
| 2026-05-06 04:26 | 42.63936 | 19.02366 | 35621 ft | 403 kts | 323° |
| 2026-05-06 04:26 | 42.66260 | 19.00236 | 35895 ft | 403 kts | 323° |
| 2026-05-06 04:26 | 42.68579 | 18.98108 | 36165 ft | 403 kts | 323° |
| 2026-05-06 04:26 | 42.70893 | 18.95983 | 36412 ft | 403 kts | 323° |
| 2026-05-06 04:27 | 42.73198 | 18.93866 | 36600 ft | 404 kts | 323° |
| 2026-05-06 04:27 | 42.75533 | 18.91718 | 36764 ft | 405 kts | 323° |
| 2026-05-06 04:27 | 42.77871 | 18.89566 | 36938 ft | 406 kts | 323° |
| 2026-05-06 04:27 | 42.80193 | 18.87426 | 37116 ft | 407 kts | 323° |
| 2026-05-06 04:28 | 42.82531 | 18.85270 | 37301 ft | 407 kts | 323° |
| 2026-05-06 04:28 | 42.84861 | 18.83116 | 37466 ft | 408 kts | 323° |
| 2026-05-06 04:28 | 42.87210 | 18.80947 | 37618 ft | 409 kts | 323° |
| 2026-05-06 04:28 | 42.89590 | 18.78747 | 37766 ft | 410 kts | 323° |
| 2026-05-06 04:29 | 42.91938 | 18.76573 | 37889 ft | 411 kts | 323° |
| 2026-05-06 04:29 | 42.94300 | 18.74384 | 38031 ft | 412 kts | 323° |
| 2026-05-06 04:29 | 42.96660 | 18.72195 | 38083 ft | 413 kts | 323° |
| 2026-05-06 04:30 | 43.01395 | 18.67797 | 38078 ft | 414 kts | 323° |
| 2026-05-06 04:30 | 43.06146 | 18.63377 | 38081 ft | 414 kts | 323° |
| 2026-05-06 04:31 | 43.10904 | 18.58941 | 38083 ft | 414 kts | 323° |
| 2026-05-06 04:31 | 43.15680 | 18.54515 | 38076 ft | 415 kts | 324° |
| 2026-05-06 04:32 | 43.20517 | 18.50272 | 38073 ft | 415 kts | 325° |
| 2026-05-06 04:32 | 43.25384 | 18.46014 | 38071 ft | 415 kts | 324° |
| 2026-05-06 04:33 | 43.30236 | 18.41750 | 38062 ft | 416 kts | 324° |
| 2026-05-06 04:33 | 43.35094 | 18.37465 | 38057 ft | 416 kts | 324° |
| 2026-05-06 04:34 | 43.39948 | 18.33170 | 38050 ft | 416 kts | 323° |
| 2026-05-06 04:34 | 43.44772 | 18.28895 | 38044 ft | 416 kts | 323° |
| 2026-05-06 04:35 | 43.49643 | 18.24569 | 38038 ft | 416 kts | 323° |
| 2026-05-06 04:35 | 43.54501 | 18.20246 | 38034 ft | 416 kts | 323° |
| 2026-05-06 04:36 | 43.59335 | 18.15937 | 38028 ft | 417 kts | 323° |
| 2026-05-06 04:36 | 43.64202 | 18.11589 | 38021 ft | 417 kts | 323° |
| 2026-05-06 04:37 | 43.69058 | 18.07243 | 38019 ft | 417 kts | 323° |
| 2026-05-06 04:37 | 43.73914 | 18.02887 | 38018 ft | 418 kts | 323° |
| 2026-05-06 04:38 | 43.78770 | 17.98523 | 38018 ft | 419 kts | 323° |
| 2026-05-06 04:38 | 43.83653 | 17.94128 | 38017 ft | 419 kts | 323° |
| 2026-05-06 04:39 | 43.88538 | 17.89720 | 38017 ft | 419 kts | 323° |
| 2026-05-06 04:39 | 43.93396 | 17.85328 | 38018 ft | 420 kts | 323° |
| 2026-05-06 04:40 | 43.98280 | 17.80905 | 38020 ft | 420 kts | 323° |
| 2026-05-06 04:40 | 44.03158 | 17.76481 | 38021 ft | 420 kts | 323° |
| 2026-05-06 04:41 | 44.08033 | 17.72048 | 38019 ft | 420 kts | 323° |
| 2026-05-06 04:41 | 44.12907 | 17.67605 | 38016 ft | 420 kts | 323° |
| 2026-05-06 04:42 | 44.17788 | 17.63148 | 38015 ft | 420 kts | 323° |
| 2026-05-06 04:42 | 44.22640 | 17.58710 | 38010 ft | 420 kts | 323° |
| 2026-05-06 04:43 | 44.27511 | 17.54245 | 38013 ft | 420 kts | 323° |
| 2026-05-06 04:43 | 44.32386 | 17.49769 | 38006 ft | 420 kts | 323° |
| 2026-05-06 04:44 | 44.37255 | 17.45286 | 38006 ft | 420 kts | 323° |
| 2026-05-06 04:44 | 44.42113 | 17.40807 | 38009 ft | 421 kts | 323° |
| 2026-05-06 04:45 | 44.47001 | 17.36290 | 38007 ft | 421 kts | 323° |
| 2026-05-06 04:45 | 44.51867 | 17.31785 | 38007 ft | 421 kts | 322° |
| 2026-05-06 04:46 | 44.56726 | 17.27275 | 38009 ft | 420 kts | 322° |
| 2026-05-06 04:46 | 44.61598 | 17.22745 | 37998 ft | 421 kts | 322° |
| 2026-05-06 04:47 | 44.66480 | 17.18197 | 37983 ft | 422 kts | 322° |
| 2026-05-06 04:47 | 44.71330 | 17.13669 | 37980 ft | 422 kts | 322° |
| 2026-05-06 04:48 | 44.76233 | 17.09086 | 37977 ft | 422 kts | 322° |
| 2026-05-06 04:48 | 44.81093 | 17.04530 | 37975 ft | 421 kts | 322° |
| 2026-05-06 04:49 | 44.85944 | 16.99972 | 37969 ft | 423 kts | 321° |
| 2026-05-06 04:49 | 44.90850 | 16.95354 | 37962 ft | 423 kts | 321° |
| 2026-05-06 04:50 | 44.95695 | 16.90783 | 37960 ft | 422 kts | 321° |
| 2026-05-06 04:50 | 45.00569 | 16.86174 | 37956 ft | 423 kts | 322° |
| 2026-05-06 04:51 | 45.05452 | 16.81552 | 37948 ft | 424 kts | 321° |
| 2026-05-06 04:51 | 45.10349 | 16.76902 | 37945 ft | 424 kts | 321° |
| 2026-05-06 04:52 | 45.15220 | 16.72270 | 37947 ft | 424 kts | 322° |
| 2026-05-06 04:52 | 45.20101 | 16.67591 | 37936 ft | 423 kts | 320° |
| 2026-05-06 04:53 | 45.24802 | 16.62666 | 37934 ft | 422 kts | 319° |
| 2026-05-06 04:53 | 45.29497 | 16.57673 | 37931 ft | 423 kts | 319° |
| 2026-05-06 04:54 | 45.34196 | 16.52667 | 37923 ft | 422 kts | 318° |
| 2026-05-06 04:54 | 45.38855 | 16.47698 | 37928 ft | 422 kts | 319° |
| 2026-05-06 04:55 | 45.43554 | 16.42676 | 37636 ft | 422 kts | 319° |
| 2026-05-06 04:55 | 45.45881 | 16.40187 | 37828 ft | 422 kts | 319° |
| 2026-05-06 04:55 | 45.48240 | 16.37659 | 37894 ft | 423 kts | 319° |
| 2026-05-06 04:56 | 45.52928 | 16.32629 | 37918 ft | 425 kts | 318° |
| 2026-05-06 04:56 | 45.57630 | 16.27579 | 37916 ft | 426 kts | 317° |
| 2026-05-06 04:57 | 45.62362 | 16.22482 | 37917 ft | 425 kts | 317° |
| 2026-05-06 04:57 | 45.67078 | 16.17389 | 37919 ft | 426 kts | 317° |
| 2026-05-06 04:58 | 45.71776 | 16.12308 | 37916 ft | 426 kts | 317° |
| 2026-05-06 04:58 | 45.76509 | 16.07173 | 37919 ft | 426 kts | 317° |
| 2026-05-06 04:59 | 45.81216 | 16.02058 | 37922 ft | 426 kts | 318° |
| 2026-05-06 04:59 | 45.85907 | 15.96950 | 37918 ft | 426 kts | 317° |
| 2026-05-06 05:00 | 45.90619 | 15.91812 | 37916 ft | 426 kts | 317° |
| 2026-05-06 05:00 | 45.95332 | 15.86659 | 37908 ft | 427 kts | 317° |
| 2026-05-06 05:01 | 46.00026 | 15.81514 | 37904 ft | 426 kts | 317° |
| 2026-05-06 05:01 | 46.04716 | 15.76360 | 37920 ft | 426 kts | 317° |
| 2026-05-06 05:02 | 46.09418 | 15.71185 | 37919 ft | 426 kts | 317° |
| 2026-05-06 05:02 | 46.14101 | 15.66016 | 37915 ft | 427 kts | 317° |
| 2026-05-06 05:03 | 46.18758 | 15.60721 | 37909 ft | 425 kts | 315° |
| 2026-05-06 05:03 | 46.23296 | 15.55252 | 37917 ft | 426 kts | 315° |
| 2026-05-06 05:04 | 46.27790 | 15.49812 | 37909 ft | 425 kts | 315° |
| 2026-05-06 05:04 | 46.32310 | 15.44335 | 37903 ft | 425 kts | 315° |
| 2026-05-06 05:05 | 46.36847 | 15.38826 | 37912 ft | 426 kts | 315° |
| 2026-05-06 05:05 | 46.41373 | 15.33321 | 37912 ft | 426 kts | 314° |
| 2026-05-06 05:06 | 46.45884 | 15.27823 | 37911 ft | 426 kts | 314° |
| 2026-05-06 05:06 | 46.50384 | 15.22323 | 37915 ft | 425 kts | 314° |
| 2026-05-06 05:07 | 46.54905 | 15.16789 | 37906 ft | 425 kts | 314° |
| 2026-05-06 05:07 | 46.59420 | 15.11249 | 37899 ft | 425 kts | 314° |
| 2026-05-06 05:08 | 46.63930 | 15.05702 | 37897 ft | 426 kts | 314° |
| 2026-05-06 05:08 | 46.68428 | 15.00154 | 37902 ft | 426 kts | 314° |
| 2026-05-06 05:09 | 46.72951 | 14.94565 | 37912 ft | 427 kts | 314° |
| 2026-05-06 05:09 | 46.77467 | 14.88974 | 37898 ft | 427 kts | 314° |
| 2026-05-06 05:10 | 46.81958 | 14.83396 | 37908 ft | 428 kts | 314° |
| 2026-05-06 05:10 | 46.86482 | 14.77772 | 37890 ft | 428 kts | 314° |
| 2026-05-06 05:11 | 46.91020 | 14.72115 | 37904 ft | 429 kts | 314° |
| 2026-05-06 05:11 | 46.95538 | 14.66471 | 37900 ft | 429 kts | 314° |
| 2026-05-06 05:12 | 47.00038 | 14.60834 | 37907 ft | 430 kts | 314° |
| 2026-05-06 05:12 | 47.04567 | 14.55148 | 37907 ft | 429 kts | 314° |
| 2026-05-06 05:13 | 47.09083 | 14.49465 | 37901 ft | 430 kts | 314° |
| 2026-05-06 05:13 | 47.13641 | 14.43716 | 37905 ft | 430 kts | 314° |
| 2026-05-06 05:14 | 47.18141 | 14.38028 | 37905 ft | 430 kts | 313° |
| 2026-05-06 05:14 | 47.22671 | 14.32285 | 37903 ft | 430 kts | 313° |
| 2026-05-06 05:15 | 47.27192 | 14.26543 | 37897 ft | 430 kts | 313° |
| 2026-05-06 05:15 | 47.31720 | 14.20778 | 37899 ft | 431 kts | 313° |
| 2026-05-06 05:16 | 47.36213 | 14.15045 | 37893 ft | 432 kts | 313° |
| 2026-05-06 05:16 | 47.40762 | 14.09228 | 37890 ft | 431 kts | 312° |
| 2026-05-06 05:17 | 47.45260 | 14.03459 | 37892 ft | 431 kts | 312° |
| 2026-05-06 05:17 | 47.49788 | 13.97639 | 37888 ft | 432 kts | 312° |
| 2026-05-06 05:18 | 47.54290 | 13.91838 | 37875 ft | 432 kts | 312° |
| 2026-05-06 05:18 | 47.58817 | 13.85991 | 37882 ft | 433 kts | 312° |
| 2026-05-06 05:19 | 47.63361 | 13.80106 | 37873 ft | 433 kts | 312° |
| 2026-05-06 05:19 | 47.67881 | 13.74242 | 37878 ft | 434 kts | 312° |
| 2026-05-06 05:20 | 47.72413 | 13.68348 | 37867 ft | 435 kts | 312° |
| 2026-05-06 05:20 | 47.76942 | 13.62441 | 37857 ft | 436 kts | 313° |
| 2026-05-06 05:21 | 47.81495 | 13.56494 | 37837 ft | 436 kts | 313° |
| 2026-05-06 05:21 | 47.86023 | 13.50559 | 37836 ft | 438 kts | 313° |
| 2026-05-06 05:22 | 47.90577 | 13.44582 | 37815 ft | 438 kts | 312° |
| 2026-05-06 05:22 | 47.95136 | 13.38578 | 37800 ft | 439 kts | 312° |
| 2026-05-06 05:23 | 47.99729 | 13.32518 | 37786 ft | 438 kts | 312° |
| 2026-05-06 05:23 | 48.06551 | 13.23485 | 37796 ft | 439 kts | 312° |
| 2026-05-06 05:24 | 48.11118 | 13.17422 | 37815 ft | 440 kts | 312° |
| 2026-05-06 05:24 | 48.15660 | 13.11380 | 37794 ft | 440 kts | 311° |
| 2026-05-06 05:25 | 48.20219 | 13.05291 | 37806 ft | 441 kts | 312° |
| 2026-05-06 05:25 | 48.24550 | 12.98948 | 37804 ft | 437 kts | 306° |
| 2026-05-06 05:26 | 48.28578 | 12.92176 | 37800 ft | 435 kts | 305° |
| 2026-05-06 05:26 | 48.32584 | 12.85356 | 37807 ft | 437 kts | 306° |
| 2026-05-06 05:27 | 48.36572 | 12.78569 | 37798 ft | 436 kts | 305° |
| 2026-05-06 05:27 | 48.40591 | 12.71714 | 37786 ft | 437 kts | 306° |
| 2026-05-06 05:28 | 48.44601 | 12.64861 | 37774 ft | 437 kts | 306° |
| 2026-05-06 05:28 | 48.48587 | 12.58033 | 37811 ft | 438 kts | 306° |
| 2026-05-06 05:29 | 48.52605 | 12.51136 | 37787 ft | 438 kts | 306° |
| 2026-05-06 05:29 | 48.56605 | 12.44244 | 37778 ft | 438 kts | 306° |
| 2026-05-06 05:30 | 48.60603 | 12.37346 | 37781 ft | 438 kts | 306° |
| 2026-05-06 05:30 | 48.64585 | 12.30454 | 37810 ft | 438 kts | 305° |
| 2026-05-06 05:31 | 48.68589 | 12.23501 | 37781 ft | 438 kts | 305° |
| 2026-05-06 05:31 | 48.72148 | 12.16151 | 37780 ft | 432 kts | 295° |
| 2026-05-06 05:32 | 48.74730 | 12.08096 | 37748 ft | 427 kts | 285° |
| 2026-05-06 05:32 | 48.76324 | 11.99503 | 37791 ft | 421 kts | 276° |
| 2026-05-06 05:33 | 48.77286 | 11.90829 | 37779 ft | 421 kts | 275° |
| 2026-05-06 05:33 | 48.78220 | 11.82048 | 37797 ft | 422 kts | 275° |
| 2026-05-06 05:34 | 48.79149 | 11.73333 | 37785 ft | 422 kts | 275° |
| 2026-05-06 05:34 | 48.80077 | 11.64579 | 37794 ft | 422 kts | 275° |
| 2026-05-06 05:35 | 48.80992 | 11.55814 | 37789 ft | 423 kts | 275° |
| 2026-05-06 05:35 | 48.81896 | 11.47048 | 37752 ft | 422 kts | 275° |
| 2026-05-06 05:36 | 48.82346 | 11.42672 | 37878 ft | 423 kts | 275° |
| 2026-05-06 05:36 | 48.82794 | 11.38278 | 37839 ft | 423 kts | 275° |
| 2026-05-06 05:36 | 48.84021 | 11.29550 | 37794 ft | 427 kts | 283° |
| 2026-05-06 05:37 | 48.86473 | 11.21266 | 37136 ft | 440 kts | 296° |
| 2026-05-06 05:37 | 48.88199 | 11.17405 | 36513 ft | 446 kts | 302° |
| 2026-05-06 05:37 | 48.90241 | 11.13828 | 35812 ft | 454 kts | 309° |
| 2026-05-06 05:38 | 48.92531 | 11.10515 | 35097 ft | 459 kts | 312° |
| 2026-05-06 05:38 | 48.94894 | 11.07280 | 34389 ft | 462 kts | 313° |
| 2026-05-06 05:38 | 48.97262 | 11.04051 | 33697 ft | 464 kts | 312° |
| 2026-05-06 05:38 | 48.99662 | 11.00727 | 32870 ft | 467 kts | 311° |
| 2026-05-06 05:39 | 49.02044 | 10.97394 | 32069 ft | 468 kts | 311° |
| 2026-05-06 05:39 | 49.04397 | 10.94088 | 31284 ft | 469 kts | 310° |
| 2026-05-06 05:39 | 49.06796 | 10.90710 | 30700 ft | 463 kts | 310° |
| 2026-05-06 05:39 | 49.09122 | 10.87429 | 30148 ft | 456 kts | 310° |
| 2026-05-06 05:40 | 49.11417 | 10.84185 | 29621 ft | 449 kts | 310° |
| 2026-05-06 05:40 | 49.13679 | 10.80982 | 29120 ft | 442 kts | 311° |
| 2026-05-06 05:40 | 49.15927 | 10.77796 | 28617 ft | 435 kts | 311° |
| 2026-05-06 05:40 | 49.18109 | 10.74699 | 28121 ft | 428 kts | 311° |
| 2026-05-06 05:41 | 49.20211 | 10.71619 | 27637 ft | 420 kts | 309° |
| 2026-05-06 05:41 | 49.22248 | 10.68452 | 27148 ft | 414 kts | 309° |
| 2026-05-06 05:41 | 49.24227 | 10.65333 | 26662 ft | 408 kts | 309° |
| 2026-05-06 05:41 | 49.26181 | 10.62243 | 26194 ft | 402 kts | 309° |
| 2026-05-06 05:42 | 49.28095 | 10.59216 | 25714 ft | 397 kts | 309° |
| 2026-05-06 05:42 | 49.29998 | 10.56207 | 25242 ft | 392 kts | 310° |
| 2026-05-06 05:42 | 49.31874 | 10.53239 | 24763 ft | 387 kts | 310° |
| 2026-05-06 05:42 | 49.33724 | 10.50310 | 24299 ft | 382 kts | 310° |
| 2026-05-06 05:43 | 49.35490 | 10.47334 | 23832 ft | 376 kts | 307° |
| 2026-05-06 05:43 | 49.37133 | 10.44187 | 23591 ft | 375 kts | 304° |
| 2026-05-06 05:43 | 49.38658 | 10.40941 | 23614 ft | 377 kts | 302° |
| 2026-05-06 05:43 | 49.40150 | 10.37682 | 23645 ft | 378 kts | 302° |
| 2026-05-06 05:44 | 49.41669 | 10.34345 | 23669 ft | 379 kts | 301° |
| 2026-05-06 05:44 | 49.43169 | 10.31050 | 23683 ft | 379 kts | 301° |
| 2026-05-06 05:44 | 49.44670 | 10.27752 | 23706 ft | 379 kts | 301° |
| 2026-05-06 05:44 | 49.46189 | 10.24410 | 23716 ft | 379 kts | 301° |
| 2026-05-06 05:45 | 49.47683 | 10.21121 | 23702 ft | 379 kts | 301° |
| 2026-05-06 05:45 | 49.49180 | 10.17823 | 23212 ft | 381 kts | 302° |
| 2026-05-06 05:45 | 49.50690 | 10.14492 | 22651 ft | 378 kts | 302° |
| 2026-05-06 05:45 | 49.52191 | 10.11175 | 22148 ft | 375 kts | 302° |
| 2026-05-06 05:46 | 49.53661 | 10.07924 | 21669 ft | 372 kts | 302° |
| 2026-05-06 05:46 | 49.55120 | 10.04692 | 21187 ft | 369 kts | 302° |
| 2026-05-06 05:46 | 49.56586 | 10.01441 | 20700 ft | 366 kts | 302° |
| 2026-05-06 05:46 | 49.58029 | 9.98234 | 20223 ft | 364 kts | 302° |
| 2026-05-06 05:47 | 49.59460 | 9.95052 | 19743 ft | 362 kts | 302° |
| 2026-05-06 05:47 | 49.60873 | 9.91903 | 19275 ft | 360 kts | 302° |
| 2026-05-06 05:47 | 49.62291 | 9.88742 | 18812 ft | 358 kts | 302° |
| 2026-05-06 05:47 | 49.63703 | 9.85590 | 18347 ft | 357 kts | 302° |
| 2026-05-06 05:48 | 49.65100 | 9.82468 | 17884 ft | 355 kts | 302° |
| 2026-05-06 05:48 | 49.66508 | 9.79321 | 17427 ft | 354 kts | 302° |
| 2026-05-06 05:48 | 49.67893 | 9.76219 | 16970 ft | 352 kts | 302° |
| 2026-05-06 05:48 | 49.69266 | 9.73140 | 16510 ft | 351 kts | 302° |
| 2026-05-06 05:49 | 49.70641 | 9.70052 | 16049 ft | 350 kts | 302° |
| 2026-05-06 05:49 | 49.72015 | 9.66962 | 15594 ft | 348 kts | 302° |
| 2026-05-06 05:49 | 49.73370 | 9.63912 | 15142 ft | 346 kts | 302° |
| 2026-05-06 05:49 | 49.74726 | 9.60855 | 14687 ft | 345 kts | 302° |
| 2026-05-06 05:50 | 49.76075 | 9.57809 | 14235 ft | 343 kts | 302° |
| 2026-05-06 05:50 | 49.77422 | 9.54766 | 13776 ft | 342 kts | 302° |
| 2026-05-06 05:50 | 49.78754 | 9.51758 | 13323 ft | 340 kts | 302° |
| 2026-05-06 05:50 | 49.80076 | 9.48765 | 12871 ft | 338 kts | 301° |
| 2026-05-06 05:51 | 49.81405 | 9.45754 | 12417 ft | 337 kts | 301° |
| 2026-05-06 05:51 | 49.82711 | 9.42789 | 11960 ft | 335 kts | 301° |
| 2026-05-06 05:51 | 49.84023 | 9.39806 | 11502 ft | 333 kts | 301° |
| 2026-05-06 05:51 | 49.85293 | 9.36875 | 11054 ft | 330 kts | 298° |
| 2026-05-06 05:52 | 49.86331 | 9.33756 | 10624 ft | 324 kts | 289° |
| 2026-05-06 05:52 | 49.87056 | 9.30529 | 10594 ft | 309 kts | 284° |
| 2026-05-06 05:52 | 49.87669 | 9.27360 | 10623 ft | 308 kts | 283° |
| 2026-05-06 05:52 | 49.88273 | 9.24154 | 10647 ft | 308 kts | 283° |
| 2026-05-06 05:53 | 49.88875 | 9.20957 | 10671 ft | 309 kts | 283° |
| 2026-05-06 05:53 | 49.89476 | 9.17781 | 10697 ft | 308 kts | 283° |
| 2026-05-06 05:53 | 49.90083 | 9.14585 | 10722 ft | 309 kts | 283° |
| 2026-05-06 05:53 | 49.90683 | 9.11421 | 10752 ft | 309 kts | 283° |
| 2026-05-06 05:54 | 49.91293 | 9.08203 | 10762 ft | 309 kts | 283° |
| 2026-05-06 05:54 | 49.91898 | 9.05015 | 10771 ft | 309 kts | 283° |
| 2026-05-06 05:54 | 49.92501 | 9.01833 | 10772 ft | 308 kts | 283° |
| 2026-05-06 05:54 | 49.93105 | 8.98634 | 10775 ft | 308 kts | 283° |
| 2026-05-06 05:55 | 49.93790 | 8.95506 | 10764 ft | 311 kts | 294° |
| 2026-05-06 05:55 | 49.95168 | 8.92933 | 10764 ft | 320 kts | 319° |
| 2026-05-06 05:55 | 49.97214 | 8.91438 | 10770 ft | 330 kts | 344° |
| 2026-05-06 05:55 | 49.99497 | 8.91276 | 10780 ft | 335 kts | 1° |
| 2026-05-06 05:56 | 50.01791 | 8.92191 | 10759 ft | 340 kts | 26° |
| 2026-05-06 05:56 | 50.03571 | 8.94519 | 10763 ft | 341 kts | 53° |
| 2026-05-06 05:56 | 50.04608 | 8.97830 | 10777 ft | 341 kts | 72° |
| 2026-05-06 05:56 | 50.05354 | 9.01309 | 10772 ft | 340 kts | 73° |
| 2026-05-06 05:57 | 50.06095 | 9.04787 | 10582 ft | 342 kts | 72° |
| 2026-05-06 05:57 | 50.06886 | 9.08327 | 9847 ft | 351 kts | 70° |
| 2026-05-06 05:57 | 50.08099 | 9.11605 | 9075 ft | 359 kts | 47° |
| 2026-05-06 05:57 | 50.10132 | 9.13790 | 8324 ft | 360 kts | 20° |
| 2026-05-06 05:58 | 50.12588 | 9.14367 | 7563 ft | 356 kts | 352° |
| 2026-05-06 05:58 | 50.14861 | 9.13234 | 6797 ft | 334 kts | 325° |
| 2026-05-06 05:58 | 50.16407 | 9.10778 | 6040 ft | 313 kts | 296° |
| 2026-05-06 05:58 | 50.16941 | 9.07625 | 5278 ft | 297 kts | 267° |
| 2026-05-06 05:59 | 50.16554 | 9.04544 | 4578 ft | 284 kts | 249° |
| 2026-05-06 05:59 | 50.15695 | 9.01875 | 4158 ft | 266 kts | 238° |
| 2026-05-06 05:59 | 50.14669 | 8.99643 | 4006 ft | 247 kts | 235° |
| 2026-05-06 05:59 | 50.13753 | 8.97472 | 3999 ft | 231 kts | 238° |
| 2026-05-06 06:00 | 50.12935 | 8.95437 | 3996 ft | 217 kts | 238° |
| 2026-05-06 06:00 | 50.12248 | 8.93418 | 3985 ft | 204 kts | 247° |
| 2026-05-06 06:00 | 50.11781 | 8.91375 | 3984 ft | 195 kts | 251° |
| 2026-05-06 06:00 | 50.11366 | 8.89391 | 3989 ft | 195 kts | 251° |
| 2026-05-06 06:01 | 50.10925 | 8.87379 | 3988 ft | 195 kts | 250° |
| 2026-05-06 06:01 | 50.10468 | 8.85400 | 3908 ft | 196 kts | 249° |
| 2026-05-06 06:01 | 50.09998 | 8.83429 | 3711 ft | 191 kts | 249° |
| 2026-05-06 06:01 | 50.09548 | 8.81574 | 3498 ft | 177 kts | 249° |
| 2026-05-06 06:02 | 50.09131 | 8.79863 | 3217 ft | 159 kts | 249° |
| 2026-05-06 06:02 | 50.08756 | 8.78328 | 3017 ft | 149 kts | 249° |
| 2026-05-06 06:02 | 50.08395 | 8.76847 | 2797 ft | 141 kts | 248° |
| 2026-05-06 06:02 | 50.08065 | 8.75492 | 2582 ft | 129 kts | 248° |
| 2026-05-06 06:03 | 50.07752 | 8.74202 | 2408 ft | 127 kts | 248° |
| 2026-05-06 06:03 | 50.07441 | 8.72922 | 2260 ft | 127 kts | 248° |
| 2026-05-06 06:03 | 50.07126 | 8.71622 | 2104 ft | 128 kts | 248° |
| 2026-05-06 06:03 | 50.06815 | 8.70336 | 1945 ft | 128 kts | 248° |
| 2026-05-06 06:04 | 50.06499 | 8.69023 | 1781 ft | 129 kts | 248° |
| 2026-05-06 06:04 | 50.06184 | 8.67717 | 1608 ft | 129 kts | 248° |
| 2026-05-06 06:04 | 50.05869 | 8.66407 | 1435 ft | 130 kts | 248° |
| 2026-05-06 06:04 | 50.05552 | 8.65090 | 1258 ft | 131 kts | 248° |
| 2026-05-06 06:05 | 50.05236 | 8.63772 | 1079 ft | 131 kts | 248° |
| 2026-05-06 06:05 | 50.04914 | 8.62432 | 902 ft | 132 kts | 248° |
| 2026-05-06 06:05 | 50.04592 | 8.61092 | 728 ft | 133 kts | 249° |
| 2026-05-06 06:05 | 50.04270 | 8.59752 | 544 ft | 133 kts | 248° |
| 2026-05-06 06:06 | 50.03945 | 8.58393 | 381 ft | 133 kts | 245° |
| 2026-05-06 06:06 | 50.03656 | 8.57182 | 343 ft | 99 kts | 252° |
| 2026-05-06 06:06 | 50.03476 | 8.56424 | 340 ft | 50 kts | 249° |
| 2026-05-06 06:06 | 50.03438 | 8.56048 | 337 ft | 32 kts | 280° |
| 2026-05-06 06:07 | 50.03464 | 8.55808 | 337 ft | 17 kts | 279° |
| 2026-05-06 06:07 | 50.03516 | 8.55698 | 337 ft | 11 kts | 1° |
| 2026-05-06 06:07 | 50.03568 | 8.55790 | 338 ft | 15 kts | 70° |
| 2026-05-06 06:07 | 50.03630 | 8.56050 | 340 ft | 27 kts | 69° |
| 2026-05-06 06:08 | 50.03695 | 8.56321 | 341 ft | 25 kts | 69° |
| 2026-05-06 06:08 | 50.03757 | 8.56577 | 345 ft | 28 kts | 70° |
| 2026-05-06 06:08 | 50.03826 | 8.56867 | 347 ft | 26 kts | 71° |
| 2026-05-06 06:08 | 50.03885 | 8.57117 | 351 ft | 23 kts | 69° |
| 2026-05-06 06:09 | 50.03940 | 8.57344 | 354 ft | 21 kts | 70° |
| 2026-05-06 06:09 | 50.03997 | 8.57589 | 358 ft | 27 kts | 71° |
| 2026-05-06 06:09 | 50.04060 | 8.57850 | 363 ft | 24 kts | 70° |
| 2026-05-06 06:09 | 50.04116 | 8.58082 | 366 ft | 21 kts | 64° |
| 2026-05-06 06:10 | 50.04235 | 8.58201 | 367 ft | 19 kts | 17° |
| 2026-05-06 06:10 | 50.04386 | 8.58145 | 370 ft | 24 kts | 339° |
| 2026-05-06 06:10 | 50.04538 | 8.58057 | 373 ft | 22 kts | 340° |
| 2026-05-06 06:10 | 50.04682 | 8.57974 | 372 ft | 22 kts | 339° |
| 2026-05-06 06:11 | 50.04776 | 8.58030 | 375 ft | 15 kts | 69° |
| 2026-05-06 06:11 | 50.04809 | 8.58174 | 379 ft | 8 kts | 70° |
| 2026-05-06 06:11 | 50.04801 | 8.58217 | 379 ft | 5 kts | 153° |
| 2026-05-06 06:11 | 50.04771 | 8.58235 | 378 ft | 0 kts | 160° |
| 2026-05-06 06:12 | 50.04761 | 8.58240 | 378 ft | 0 kts | 160° |
| 2026-05-06 06:12 | 50.04761 | 8.58241 | 378 ft | 0 kts | 160° |